Terminal Aerodrome Forecast
Issued by NWS

Current Version | Previous Version | Text Only | Print | Product List | Glossary Off
Versions: 1 2 3 4 5 6 7 8 9 10 11 12 13 14 15 16 17 18 19 20 21 22 23

000
FTUS41 KPBZ 302100 AAA
TAFMGW
TAF AMD
KMGW 302116Z 3021/3118 19005KT P6SM SCT050 BKN150
     FM311000 21005KT 6SM -SHRA OVC035
     FM311400 23005KT 3SM -SHRA OVC015=

USA.gov is the U.S. government's official web portal to all federal, state and local government web resources and services.